sensor_id;sensor_type;location;lat;lon;timestamp;P1;durP1;ratioP1;P2;durP2;ratioP2
12348;SDS011;5974;42.710;27.258;2022-08-19T00:00:29;12.27;;;11.10;;
12348;SDS011;5974;42.710;27.258;2022-08-19T00:02:55;11.17;;;10.07;;
12348;SDS011;5974;42.710;27.258;2022-08-19T00:05:22;11.17;;;9.93;;
12348;SDS011;5974;42.710;27.258;2022-08-19T00:07:49;11.20;;;10.20;;
12348;SDS011;5974;42.710;27.258;2022-08-19T00:10:16;10.33;;;9.43;;
12348;SDS011;5974;42.710;27.258;2022-08-19T00:12:44;11.60;;;10.30;;
12348;SDS011;5974;42.710;27.258;2022-08-19T00:15:12;11.00;;;9.90;;
12348;SDS011;5974;42.710;27.258;2022-08-19T00:17:39;10.70;;;9.60;;
12348;SDS011;5974;42.710;27.258;2022-08-19T00:20:07;12.43;;;9.70;;
12348;SDS011;5974;42.710;27.258;2022-08-19T00:22:35;10.80;;;9.90;;
12348;SDS011;5974;42.710;27.258;2022-08-19T00:25:02;11.63;;;9.63;;
12348;SDS011;5974;42.710;27.258;2022-08-19T00:27:29;11.27;;;10.13;;
12348;SDS011;5974;42.710;27.258;2022-08-19T00:29:55;11.07;;;10.03;;
12348;SDS011;5974;42.710;27.258;2022-08-19T00:32:25;10.97;;;10.10;;
12348;SDS011;5974;42.710;27.258;2022-08-19T00:34:52;11.23;;;10.33;;
12348;SDS011;5974;42.710;27.258;2022-08-19T00:37:18;11.27;;;10.17;;
12348;SDS011;5974;42.710;27.258;2022-08-19T00:39:47;11.07;;;10.17;;
12348;SDS011;5974;42.710;27.258;2022-08-19T00:42:14;11.40;;;10.33;;
12348;SDS011;5974;42.710;27.258;2022-08-19T00:44:40;10.50;;;9.60;;
12348;SDS011;5974;42.710;27.258;2022-08-19T00:47:08;11.13;;;10.07;;
12348;SDS011;5974;42.710;27.258;2022-08-19T00:49:45;11.43;;;10.33;;
12348;SDS011;5974;42.710;27.258;2022-08-19T00:52:16;11.47;;;10.37;;
12348;SDS011;5974;42.710;27.258;2022-08-19T00:54:43;11.20;;;10.30;;
12348;SDS011;5974;42.710;27.258;2022-08-19T00:57:13;10.33;;;9.50;;
12348;SDS011;5974;42.710;27.258;2022-08-19T00:59:42;11.63;;;10.10;;
12348;SDS011;5974;42.710;27.258;2022-08-19T01:02:11;12.17;;;10.90;;
12348;SDS011;5974;42.710;27.258;2022-08-19T01:04:39;11.17;;;10.17;;
12348;SDS011;5974;42.710;27.258;2022-08-19T01:07:05;11.93;;;10.90;;
12348;SDS011;5974;42.710;27.258;2022-08-19T01:09:32;11.33;;;9.80;;
12348;SDS011;5974;42.710;27.258;2022-08-19T01:11:59;11.17;;;10.07;;
12348;SDS011;5974;42.710;27.258;2022-08-19T01:14:26;11.30;;;10.23;;
12348;SDS011;5974;42.710;27.258;2022-08-19T01:16:53;11.80;;;10.80;;
12348;SDS011;5974;42.710;27.258;2022-08-19T01:19:24;12.67;;;10.23;;
12348;SDS011;5974;42.710;27.258;2022-08-19T01:21:55;14.10;;;10.73;;
12348;SDS011;5974;42.710;27.258;2022-08-19T01:24:24;11.17;;;10.07;;
12348;SDS011;5974;42.710;27.258;2022-08-19T01:26:51;10.67;;;9.60;;
12348;SDS011;5974;42.710;27.258;2022-08-19T01:29:18;11.70;;;10.17;;
12348;SDS011;5974;42.710;27.258;2022-08-19T01:31:44;13.47;;;10.23;;
12348;SDS011;5974;42.710;27.258;2022-08-19T01:34:11;11.03;;;10.03;;
12348;SDS011;5974;42.710;27.258;2022-08-19T01:36:39;11.20;;;10.20;;
12348;SDS011;5974;42.710;27.258;2022-08-19T01:39:09;11.33;;;10.33;;
12348;SDS011;5974;42.710;27.258;2022-08-19T01:41:38;11.67;;;10.47;;
12348;SDS011;5974;42.710;27.258;2022-08-19T01:44:06;11.07;;;9.70;;
12348;SDS011;5974;42.710;27.258;2022-08-19T01:46:33;11.43;;;10.33;;
12348;SDS011;5974;42.710;27.258;2022-08-19T01:49:01;11.00;;;9.93;;
12348;SDS011;5974;42.710;27.258;2022-08-19T01:51:28;10.93;;;9.83;;
12348;SDS011;5974;42.710;27.258;2022-08-19T01:53:55;11.27;;;10.23;;
12348;SDS011;5974;42.710;27.258;2022-08-19T01:56:22;10.30;;;9.37;;
12348;SDS011;5974;42.710;27.258;2022-08-19T01:58:51;10.83;;;9.83;;
12348;SDS011;5974;42.710;27.258;2022-08-19T02:01:20;11.40;;;10.27;;
12348;SDS011;5974;42.710;27.258;2022-08-19T02:03:46;11.27;;;10.20;;
12348;SDS011;5974;42.710;27.258;2022-08-19T02:06:13;10.70;;;9.60;;
12348;SDS011;5974;42.710;27.258;2022-08-19T02:08:42;10.43;;;9.53;;
12348;SDS011;5974;42.710;27.258;2022-08-19T02:11:17;10.67;;;9.67;;
12348;SDS011;5974;42.710;27.258;2022-08-19T02:13:44;10.53;;;9.40;;
12348;SDS011;5974;42.710;27.258;2022-08-19T02:16:13;11.00;;;10.03;;
12348;SDS011;5974;42.710;27.258;2022-08-19T02:18:40;11.83;;;10.77;;
12348;SDS011;5974;42.710;27.258;2022-08-19T02:21:07;11.23;;;10.23;;
12348;SDS011;5974;42.710;27.258;2022-08-19T02:23:33;11.83;;;10.77;;
12348;SDS011;5974;42.710;27.258;2022-08-19T02:26:00;11.80;;;10.57;;
12348;SDS011;5974;42.710;27.258;2022-08-19T02:28:26;12.00;;;11.10;;
12348;SDS011;5974;42.710;27.258;2022-08-19T02:30:53;12.80;;;11.27;;
12348;SDS011;5974;42.710;27.258;2022-08-19T02:33:21;13.10;;;11.60;;
12348;SDS011;5974;42.710;27.258;2022-08-19T02:35:48;12.53;;;11.23;;
12348;SDS011;5974;42.710;27.258;2022-08-19T02:38:14;12.50;;;11.30;;
12348;SDS011;5974;42.710;27.258;2022-08-19T02:40:54;12.67;;;11.47;;
12348;SDS011;5974;42.710;27.258;2022-08-19T02:43:21;12.10;;;11.10;;
12348;SDS011;5974;42.710;27.258;2022-08-19T02:45:48;12.63;;;11.40;;
12348;SDS011;5974;42.710;27.258;2022-08-19T02:48:15;12.93;;;11.73;;
12348;SDS011;5974;42.710;27.258;2022-08-19T02:50:44;12.70;;;11.33;;
12348;SDS011;5974;42.710;27.258;2022-08-19T02:53:11;13.20;;;11.90;;
12348;SDS011;5974;42.710;27.258;2022-08-19T02:55:42;12.77;;;11.47;;
12348;SDS011;5974;42.710;27.258;2022-08-19T02:58:08;12.10;;;11.00;;
12348;SDS011;5974;42.710;27.258;2022-08-19T03:00:35;12.50;;;11.30;;
12348;SDS011;5974;42.710;27.258;2022-08-19T03:03:02;12.23;;;10.83;;
12348;SDS011;5974;42.710;27.258;2022-08-19T03:05:28;13.07;;;11.80;;
12348;SDS011;5974;42.710;27.258;2022-08-19T03:07:56;13.60;;;12.20;;
12348;SDS011;5974;42.710;27.258;2022-08-19T03:10:24;13.00;;;11.47;;
12348;SDS011;5974;42.710;27.258;2022-08-19T03:12:50;13.43;;;12.13;;
12348;SDS011;5974;42.710;27.258;2022-08-19T03:15:17;12.93;;;11.57;;
12348;SDS011;5974;42.710;27.258;2022-08-19T03:17:44;12.83;;;11.63;;
12348;SDS011;5974;42.710;27.258;2022-08-19T03:20:10;12.50;;;11.40;;
12348;SDS011;5974;42.710;27.258;2022-08-19T03:22:37;11.77;;;10.63;;
12348;SDS011;5974;42.710;27.258;2022-08-19T03:25:05;12.23;;;11.13;;
12348;SDS011;5974;42.710;27.258;2022-08-19T03:27:32;12.40;;;11.20;;
12348;SDS011;5974;42.710;27.258;2022-08-19T03:29:59;13.07;;;11.87;;
12348;SDS011;5974;42.710;27.258;2022-08-19T03:32:25;13.13;;;11.77;;
12348;SDS011;5974;42.710;27.258;2022-08-19T03:34:52;14.73;;;11.60;;
12348;SDS011;5974;42.710;27.258;2022-08-19T03:37:18;14.60;;;12.40;;
12348;SDS011;5974;42.710;27.258;2022-08-19T03:39:45;12.77;;;11.57;;
12348;SDS011;5974;42.710;27.258;2022-08-19T03:42:13;12.57;;;11.37;;
12348;SDS011;5974;42.710;27.258;2022-08-19T03:44:42;15.50;;;12.20;;
12348;SDS011;5974;42.710;27.258;2022-08-19T03:47:09;12.93;;;11.80;;
12348;SDS011;5974;42.710;27.258;2022-08-19T03:49:41;12.27;;;11.07;;
12348;SDS011;5974;42.710;27.258;2022-08-19T03:52:08;12.63;;;11.33;;
12348;SDS011;5974;42.710;27.258;2022-08-19T03:54:35;11.17;;;10.27;;
12348;SDS011;5974;42.710;27.258;2022-08-19T03:57:03;11.87;;;10.77;;
12348;SDS011;5974;42.710;27.258;2022-08-19T03:59:32;11.77;;;10.30;;
12348;SDS011;5974;42.710;27.258;2022-08-19T04:02:00;11.13;;;10.13;;
12348;SDS011;5974;42.710;27.258;2022-08-19T04:04:27;13.07;;;10.30;;
12348;SDS011;5974;42.710;27.258;2022-08-19T04:06:54;10.83;;;9.87;;
12348;SDS011;5974;42.710;27.258;2022-08-19T04:09:20;11.53;;;10.33;;
12348;SDS011;5974;42.710;27.258;2022-08-19T04:11:48;12.10;;;11.00;;
12348;SDS011;5974;42.710;27.258;2022-08-19T04:14:15;11.23;;;9.77;;
12348;SDS011;5974;42.710;27.258;2022-08-19T04:16:45;11.07;;;9.93;;
12348;SDS011;5974;42.710;27.258;2022-08-19T04:19:12;9.67;;;8.80;;
12348;SDS011;5974;42.710;27.258;2022-08-19T04:21:39;10.30;;;9.30;;
12348;SDS011;5974;42.710;27.258;2022-08-19T04:24:06;9.77;;;8.90;;
12348;SDS011;5974;42.710;27.258;2022-08-19T04:26:34;10.50;;;8.63;;
12348;SDS011;5974;42.710;27.258;2022-08-19T04:29:03;9.80;;;8.80;;
12348;SDS011;5974;42.710;27.258;2022-08-19T04:31:30;9.30;;;8.50;;
12348;SDS011;5974;42.710;27.258;2022-08-19T04:34:03;8.77;;;7.97;;
12348;SDS011;5974;42.710;27.258;2022-08-19T04:36:30;8.80;;;7.97;;
12348;SDS011;5974;42.710;27.258;2022-08-19T04:38:58;7.87;;;7.13;;
12348;SDS011;5974;42.710;27.258;2022-08-19T04:41:26;10.57;;;7.80;;
12348;SDS011;5974;42.710;27.258;2022-08-19T04:44:10;9.20;;;7.80;;
12348;SDS011;5974;42.710;27.258;2022-08-19T04:46:37;8.63;;;7.73;;
12348;SDS011;5974;42.710;27.258;2022-08-19T04:49:05;8.43;;;7.70;;
12348;SDS011;5974;42.710;27.258;2022-08-19T04:51:33;8.07;;;7.17;;
12348;SDS011;5974;42.710;27.258;2022-08-19T04:54:00;7.73;;;7.13;;
12348;SDS011;5974;42.710;27.258;2022-08-19T04:56:27;7.78;;;7.03;;
12348;SDS011;5974;42.710;27.258;2022-08-19T04:58:55;7.00;;;6.40;;
12348;SDS011;5974;42.710;27.258;2022-08-19T05:01:22;8.32;;;6.40;;
12348;SDS011;5974;42.710;27.258;2022-08-19T05:03:49;6.93;;;6.32;;
12348;SDS011;5974;42.710;27.258;2022-08-19T05:06:18;7.28;;;6.50;;
12348;SDS011;5974;42.710;27.258;2022-08-19T05:08:45;7.63;;;6.30;;
12348;SDS011;5974;42.710;27.258;2022-08-19T05:11:12;7.43;;;6.68;;
12348;SDS011;5974;42.710;27.258;2022-08-19T05:13:39;7.10;;;6.38;;
12348;SDS011;5974;42.710;27.258;2022-08-19T05:16:06;6.80;;;6.20;;
12348;SDS011;5974;42.710;27.258;2022-08-19T05:18:32;7.15;;;6.45;;
12348;SDS011;5974;42.710;27.258;2022-08-19T05:21:18;7.88;;;6.25;;
12348;SDS011;5974;42.710;27.258;2022-08-19T05:24:02;7.28;;;6.10;;
12348;SDS011;5974;42.710;27.258;2022-08-19T05:26:32;6.57;;;5.97;;
12348;SDS011;5974;42.710;27.258;2022-08-19T05:28:59;6.50;;;5.75;;
12348;SDS011;5974;42.710;27.258;2022-08-19T05:31:26;7.75;;;6.13;;
12348;SDS011;5974;42.710;27.258;2022-08-19T05:33:52;6.82;;;5.85;;
12348;SDS011;5974;42.710;27.258;2022-08-19T05:36:20;10.60;;;6.50;;
12348;SDS011;5974;42.710;27.258;2022-08-19T05:38:47;6.20;;;5.70;;
12348;SDS011;5974;42.710;27.258;2022-08-19T05:41:15;7.00;;;6.40;;
12348;SDS011;5974;42.710;27.258;2022-08-19T05:43:42;8.32;;;6.22;;
12348;SDS011;5974;42.710;27.258;2022-08-19T05:46:13;6.82;;;6.22;;
12348;SDS011;5974;42.710;27.258;2022-08-19T05:48:43;7.13;;;6.22;;
12348;SDS011;5974;42.710;27.258;2022-08-19T05:51:10;6.80;;;6.10;;
12348;SDS011;5974;42.710;27.258;2022-08-19T05:53:38;7.45;;;6.03;;
12348;SDS011;5974;42.710;27.258;2022-08-19T05:56:05;8.88;;;6.18;;
12348;SDS011;5974;42.710;27.258;2022-08-19T05:58:31;9.27;;;6.43;;
12348;SDS011;5974;42.710;27.258;2022-08-19T06:00:58;9.93;;;6.47;;
12348;SDS011;5974;42.710;27.258;2022-08-19T06:03:29;8.15;;;6.60;;
12348;SDS011;5974;42.710;27.258;2022-08-19T06:05:56;7.43;;;5.85;;
12348;SDS011;5974;42.710;27.258;2022-08-19T06:08:24;6.70;;;6.10;;
12348;SDS011;5974;42.710;27.258;2022-08-19T06:10:52;6.60;;;6.05;;
12348;SDS011;5974;42.710;27.258;2022-08-19T06:13:19;8.50;;;6.47;;
12348;SDS011;5974;42.710;27.258;2022-08-19T06:15:46;9.45;;;6.55;;
12348;SDS011;5974;42.710;27.258;2022-08-19T06:18:13;7.05;;;6.15;;
12348;SDS011;5974;42.710;27.258;2022-08-19T06:20:40;9.10;;;6.10;;
12348;SDS011;5974;42.710;27.258;2022-08-19T06:23:07;6.80;;;6.20;;
12348;SDS011;5974;42.710;27.258;2022-08-19T06:25:34;9.90;;;6.35;;
12348;SDS011;5974;42.710;27.258;2022-08-19T06:28:02;7.50;;;6.40;;
12348;SDS011;5974;42.710;27.258;2022-08-19T06:30:29;7.35;;;6.57;;
12348;SDS011;5974;42.710;27.258;2022-08-19T06:32:55;7.47;;;6.03;;
12348;SDS011;5974;42.710;27.258;2022-08-19T06:35:22;9.23;;;6.25;;
12348;SDS011;5974;42.710;27.258;2022-08-19T06:37:48;8.63;;;6.10;;
12348;SDS011;5974;42.710;27.258;2022-08-19T06:40:15;8.32;;;6.20;;
12348;SDS011;5974;42.710;27.258;2022-08-19T06:42:42;8.85;;;6.43;;
12348;SDS011;5974;42.710;27.258;2022-08-19T06:45:10;9.90;;;6.20;;
12348;SDS011;5974;42.710;27.258;2022-08-19T06:47:36;6.72;;;6.18;;
12348;SDS011;5974;42.710;27.258;2022-08-19T06:50:03;12.43;;;6.25;;
12348;SDS011;5974;42.710;27.258;2022-08-19T06:52:30;9.00;;;6.22;;
12348;SDS011;5974;42.710;27.258;2022-08-19T06:54:57;8.65;;;6.43;;
12348;SDS011;5974;42.710;27.258;2022-08-19T06:57:24;6.95;;;6.25;;
12348;SDS011;5974;42.710;27.258;2022-08-19T06:59:51;6.97;;;6.28;;
12348;SDS011;5974;42.710;27.258;2022-08-19T07:02:19;6.60;;;6.05;;
12348;SDS011;5974;42.710;27.258;2022-08-19T07:04:46;7.40;;;6.68;;
12348;SDS011;5974;42.710;27.258;2022-08-19T07:07:13;7.22;;;6.50;;
12348;SDS011;5974;42.710;27.258;2022-08-19T07:09:40;6.93;;;6.22;;
12348;SDS011;5974;42.710;27.258;2022-08-19T07:12:08;8.00;;;6.28;;
12348;SDS011;5974;42.710;27.258;2022-08-19T07:14:35;7.93;;;6.40;;
12348;SDS011;5974;42.710;27.258;2022-08-19T07:17:03;7.95;;;6.40;;
12348;SDS011;5974;42.710;27.258;2022-08-19T07:19:32;7.88;;;6.38;;
12348;SDS011;5974;42.710;27.258;2022-08-19T07:22:00;10.43;;;6.50;;
12348;SDS011;5974;42.710;27.258;2022-08-19T07:24:27;6.70;;;6.07;;
12348;SDS011;5974;42.710;27.258;2022-08-19T07:26:55;7.07;;;6.25;;
12348;SDS011;5974;42.710;27.258;2022-08-19T07:29:22;7.13;;;6.00;;
12348;SDS011;5974;42.710;27.258;2022-08-19T07:31:49;11.32;;;6.25;;
12348;SDS011;5974;42.710;27.258;2022-08-19T07:34:18;6.60;;;5.95;;
12348;SDS011;5974;42.710;27.258;2022-08-19T07:36:46;8.02;;;5.70;;
12348;SDS011;5974;42.710;27.258;2022-08-19T07:39:22;7.30;;;6.25;;
12348;SDS011;5974;42.710;27.258;2022-08-19T07:41:48;8.07;;;5.97;;
12348;SDS011;5974;42.710;27.258;2022-08-19T07:44:16;9.57;;;6.35;;
12348;SDS011;5974;42.710;27.258;2022-08-19T07:46:46;8.02;;;6.03;;
12348;SDS011;5974;42.710;27.258;2022-08-19T07:49:13;6.72;;;6.10;;
12348;SDS011;5974;42.710;27.258;2022-08-19T07:51:43;7.43;;;6.07;;
12348;SDS011;5974;42.710;27.258;2022-08-19T07:54:11;7.47;;;5.85;;
12348;SDS011;5974;42.710;27.258;2022-08-19T07:56:38;13.23;;;6.60;;
12348;SDS011;5974;42.710;27.258;2022-08-19T07:59:05;6.85;;;6.10;;
12348;SDS011;5974;42.710;27.258;2022-08-19T08:01:32;6.60;;;6.05;;
12348;SDS011;5974;42.710;27.258;2022-08-19T08:03:59;7.78;;;6.32;;
12348;SDS011;5974;42.710;27.258;2022-08-19T08:06:43;6.65;;;6.05;;
12348;SDS011;5974;42.710;27.258;2022-08-19T08:09:29;7.07;;;6.40;;
12348;SDS011;5974;42.710;27.258;2022-08-19T08:11:57;6.50;;;5.80;;
12348;SDS011;5974;42.710;27.258;2022-08-19T08:14:25;8.93;;;5.73;;
12348;SDS011;5974;42.710;27.258;2022-08-19T08:16:53;7.07;;;6.23;;
12348;SDS011;5974;42.710;27.258;2022-08-19T08:19:20;6.63;;;6.00;;
12348;SDS011;5974;42.710;27.258;2022-08-19T08:21:47;6.03;;;5.33;;
12348;SDS011;5974;42.710;27.258;2022-08-19T08:24:14;6.83;;;6.00;;
12348;SDS011;5974;42.710;27.258;2022-08-19T08:26:42;6.17;;;5.63;;
12348;SDS011;5974;42.710;27.258;2022-08-19T08:29:09;8.33;;;6.40;;
12348;SDS011;5974;42.710;27.258;2022-08-19T08:31:38;7.07;;;5.63;;
12348;SDS011;5974;42.710;27.258;2022-08-19T08:34:05;8.07;;;5.97;;
12348;SDS011;5974;42.710;27.258;2022-08-19T08:36:31;9.10;;;5.57;;
12348;SDS011;5974;42.710;27.258;2022-08-19T08:38:58;10.63;;;6.10;;
12348;SDS011;5974;42.710;27.258;2022-08-19T08:41:26;7.13;;;6.17;;
12348;SDS011;5974;42.710;27.258;2022-08-19T08:43:56;7.73;;;6.30;;
12348;SDS011;5974;42.710;27.258;2022-08-19T08:46:24;6.57;;;5.97;;
12348;SDS011;5974;42.710;27.258;2022-08-19T08:48:52;8.77;;;6.40;;
12348;SDS011;5974;42.710;27.258;2022-08-19T08:51:22;8.77;;;5.83;;
12348;SDS011;5974;42.710;27.258;2022-08-19T08:53:50;11.87;;;6.37;;
12348;SDS011;5974;42.710;27.258;2022-08-19T08:56:18;9.03;;;5.80;;
12348;SDS011;5974;42.710;27.258;2022-08-19T08:58:48;7.67;;;6.00;;
12348;SDS011;5974;42.710;27.258;2022-08-19T09:01:16;8.90;;;6.20;;
12348;SDS011;5974;42.710;27.258;2022-08-19T09:03:44;7.43;;;5.80;;
12348;SDS011;5974;42.710;27.258;2022-08-19T09:06:14;7.53;;;6.20;;
12348;SDS011;5974;42.710;27.258;2022-08-19T09:08:48;6.10;;;5.47;;
12348;SDS011;5974;42.710;27.258;2022-08-19T09:11:20;6.53;;;5.93;;
12348;SDS011;5974;42.710;27.258;2022-08-19T09:14:02;8.30;;;5.60;;
12348;SDS011;5974;42.710;27.258;2022-08-19T09:16:33;10.13;;;6.20;;
12348;SDS011;5974;42.710;27.258;2022-08-19T09:19:02;7.30;;;5.63;;
12348;SDS011;5974;42.710;27.258;2022-08-19T09:21:29;7.43;;;5.33;;
12348;SDS011;5974;42.710;27.258;2022-08-19T09:23:55;6.87;;;6.17;;
12348;SDS011;5974;42.710;27.258;2022-08-19T09:26:23;6.67;;;5.97;;
12348;SDS011;5974;42.710;27.258;2022-08-19T09:28:50;9.43;;;6.38;;
12348;SDS011;5974;42.710;27.258;2022-08-19T09:31:18;7.32;;;5.85;;
12348;SDS011;5974;42.710;27.258;2022-08-19T09:33:47;7.67;;;6.10;;
12348;SDS011;5974;42.710;27.258;2022-08-19T09:36:14;7.23;;;5.50;;
12348;SDS011;5974;42.710;27.258;2022-08-19T09:38:41;7.30;;;5.97;;
12348;SDS011;5974;42.710;27.258;2022-08-19T09:41:14;10.18;;;5.90;;
12348;SDS011;5974;42.710;27.258;2022-08-19T09:43:41;7.37;;;5.83;;
12348;SDS011;5974;42.710;27.258;2022-08-19T09:46:08;7.50;;;5.57;;
12348;SDS011;5974;42.710;27.258;2022-08-19T09:48:35;6.83;;;6.20;;
12348;SDS011;5974;42.710;27.258;2022-08-19T09:51:04;6.60;;;5.35;;
12348;SDS011;5974;42.710;27.258;2022-08-19T09:53:33;8.63;;;6.10;;
12348;SDS011;5974;42.710;27.258;2022-08-19T09:55:59;8.60;;;5.57;;
12348;SDS011;5974;42.710;27.258;2022-08-19T09:58:26;9.17;;;5.60;;
12348;SDS011;5974;42.710;27.258;2022-08-19T10:00:54;6.50;;;5.73;;
12348;SDS011;5974;42.710;27.258;2022-08-19T10:03:21;5.60;;;5.03;;
12348;SDS011;5974;42.710;27.258;2022-08-19T10:05:47;7.15;;;5.40;;
12348;SDS011;5974;42.710;27.258;2022-08-19T10:08:16;7.32;;;5.47;;
12348;SDS011;5974;42.710;27.258;2022-08-19T10:10:43;7.00;;;5.35;;
12348;SDS011;5974;42.710;27.258;2022-08-19T10:13:11;6.72;;;5.45;;
12348;SDS011;5974;42.710;27.258;2022-08-19T10:15:37;8.77;;;5.68;;
12348;SDS011;5974;42.710;27.258;2022-08-19T10:18:05;7.35;;;5.20;;
12348;SDS011;5974;42.710;27.258;2022-08-19T10:20:32;9.32;;;5.30;;
12348;SDS011;5974;42.710;27.258;2022-08-19T10:23:00;9.10;;;5.47;;
12348;SDS011;5974;42.710;27.258;2022-08-19T10:25:28;8.83;;;5.33;;
12348;SDS011;5974;42.710;27.258;2022-08-19T10:27:55;6.20;;;5.27;;
12348;SDS011;5974;42.710;27.258;2022-08-19T10:30:21;8.63;;;5.40;;
12348;SDS011;5974;42.710;27.258;2022-08-19T10:32:48;12.68;;;5.47;;
12348;SDS011;5974;42.710;27.258;2022-08-19T10:35:15;8.48;;;5.15;;
12348;SDS011;5974;42.710;27.258;2022-08-19T10:37:42;5.53;;;5.00;;
12348;SDS011;5974;42.710;27.258;2022-08-19T10:40:09;7.93;;;5.63;;
12348;SDS011;5974;42.710;27.258;2022-08-19T10:42:38;7.40;;;5.35;;
12348;SDS011;5974;42.710;27.258;2022-08-19T10:45:05;12.80;;;5.50;;
12348;SDS011;5974;42.710;27.258;2022-08-19T10:47:32;7.70;;;4.93;;
12348;SDS011;5974;42.710;27.258;2022-08-19T10:49:59;64.55;;;7.75;;
12348;SDS011;5974;42.710;27.258;2022-08-19T10:52:44;67.82;;;6.60;;
12348;SDS011;5974;42.710;27.258;2022-08-19T10:55:11;6.90;;;4.90;;
12348;SDS011;5974;42.710;27.258;2022-08-19T10:57:57;6.82;;;5.57;;
12348;SDS011;5974;42.710;27.258;2022-08-19T11:00:24;6.40;;;4.90;;
12348;SDS011;5974;42.710;27.258;2022-08-19T11:02:51;6.18;;;5.32;;
12348;SDS011;5974;42.710;27.258;2022-08-19T11:05:18;8.55;;;5.25;;
12348;SDS011;5974;42.710;27.258;2022-08-19T11:07:44;7.90;;;5.30;;
12348;SDS011;5974;42.710;27.258;2022-08-19T11:10:12;9.77;;;5.55;;
12348;SDS011;5974;42.710;27.258;2022-08-19T11:12:40;9.60;;;5.45;;
12348;SDS011;5974;42.710;27.258;2022-08-19T11:15:08;5.78;;;5.10;;
12348;SDS011;5974;42.710;27.258;2022-08-19T11:17:36;7.28;;;4.93;;
12348;SDS011;5974;42.710;27.258;2022-08-19T11:20:05;5.47;;;4.82;;
12348;SDS011;5974;42.710;27.258;2022-08-19T11:22:33;7.38;;;4.97;;
12348;SDS011;5974;42.710;27.258;2022-08-19T11:25:00;8.55;;;5.45;;
12348;SDS011;5974;42.710;27.258;2022-08-19T11:27:27;9.38;;;5.40;;
12348;SDS011;5974;42.710;27.258;2022-08-19T11:29:54;7.43;;;4.82;;
12348;SDS011;5974;42.710;27.258;2022-08-19T11:32:22;8.18;;;4.88;;
12348;SDS011;5974;42.710;27.258;2022-08-19T11:34:48;7.10;;;5.25;;
12348;SDS011;5974;42.710;27.258;2022-08-19T11:37:15;7.05;;;5.38;;
12348;SDS011;5974;42.710;27.258;2022-08-19T11:39:42;7.90;;;5.55;;
12348;SDS011;5974;42.710;27.258;2022-08-19T11:42:08;8.93;;;5.35;;
12348;SDS011;5974;42.710;27.258;2022-08-19T11:44:49;7.07;;;4.97;;
12348;SDS011;5974;42.710;27.258;2022-08-19T11:47:15;7.97;;;5.50;;
12348;SDS011;5974;42.710;27.258;2022-08-19T11:49:43;7.32;;;5.70;;
12348;SDS011;5974;42.710;27.258;2022-08-19T11:52:10;9.15;;;5.10;;
12348;SDS011;5974;42.710;27.258;2022-08-19T11:54:36;7.38;;;4.93;;
12348;SDS011;5974;42.710;27.258;2022-08-19T11:57:03;7.25;;;5.47;;
12348;SDS011;5974;42.710;27.258;2022-08-19T11:59:30;7.47;;;4.97;;
12348;SDS011;5974;42.710;27.258;2022-08-19T12:01:56;6.35;;;4.75;;
12348;SDS011;5974;42.710;27.258;2022-08-19T12:04:24;7.72;;;5.07;;
12348;SDS011;5974;42.710;27.258;2022-08-19T12:06:52;8.23;;;5.15;;
12348;SDS011;5974;42.710;27.258;2022-08-19T12:09:18;8.57;;;5.25;;
12348;SDS011;5974;42.710;27.258;2022-08-19T12:11:47;6.72;;;4.43;;
12348;SDS011;5974;42.710;27.258;2022-08-19T12:14:13;6.90;;;4.82;;
12348;SDS011;5974;42.710;27.258;2022-08-19T12:16:40;5.85;;;4.63;;
12348;SDS011;5974;42.710;27.258;2022-08-19T12:19:07;5.45;;;4.57;;
12348;SDS011;5974;42.710;27.258;2022-08-19T12:21:34;7.38;;;4.50;;
12348;SDS011;5974;42.710;27.258;2022-08-19T12:24:05;6.78;;;4.85;;
12348;SDS011;5974;42.710;27.258;2022-08-19T12:26:32;7.68;;;4.70;;
12348;SDS011;5974;42.710;27.258;2022-08-19T12:28:59;9.65;;;5.10;;
12348;SDS011;5974;42.710;27.258;2022-08-19T12:31:26;9.20;;;4.97;;
12348;SDS011;5974;42.710;27.258;2022-08-19T12:33:53;7.70;;;4.95;;
12348;SDS011;5974;42.710;27.258;2022-08-19T12:36:19;10.43;;;4.50;;
12348;SDS011;5974;42.710;27.258;2022-08-19T12:38:47;7.95;;;5.18;;
12348;SDS011;5974;42.710;27.258;2022-08-19T12:41:15;10.82;;;5.03;;
12348;SDS011;5974;42.710;27.258;2022-08-19T12:43:43;9.60;;;4.82;;
12348;SDS011;5974;42.710;27.258;2022-08-19T12:46:10;8.88;;;4.75;;
12348;SDS011;5974;42.710;27.258;2022-08-19T12:48:37;8.93;;;5.55;;
12348;SDS011;5974;42.710;27.258;2022-08-19T12:51:07;8.20;;;4.78;;
12348;SDS011;5974;42.710;27.258;2022-08-19T12:53:35;7.75;;;4.85;;
12348;SDS011;5974;42.710;27.258;2022-08-19T12:56:02;11.80;;;5.15;;
12348;SDS011;5974;42.710;27.258;2022-08-19T12:58:31;9.25;;;6.32;;
12348;SDS011;5974;42.710;27.258;2022-08-19T13:00:59;8.80;;;6.43;;
12348;SDS011;5974;42.710;27.258;2022-08-19T13:03:26;8.95;;;6.72;;
12348;SDS011;5974;42.710;27.258;2022-08-19T13:05:54;6.95;;;6.15;;
12348;SDS011;5974;42.710;27.258;2022-08-19T13:08:21;7.28;;;6.50;;
12348;SDS011;5974;42.710;27.258;2022-08-19T13:10:47;11.65;;;6.35;;
12348;SDS011;5974;42.710;27.258;2022-08-19T13:13:14;10.95;;;6.57;;
12348;SDS011;5974;42.710;27.258;2022-08-19T13:15:42;10.20;;;6.47;;
12348;SDS011;5974;42.710;27.258;2022-08-19T13:18:10;10.50;;;6.07;;
12348;SDS011;5974;42.710;27.258;2022-08-19T13:20:37;11.27;;;6.57;;
12348;SDS011;5974;42.710;27.258;2022-08-19T13:23:05;6.80;;;6.10;;
12348;SDS011;5974;42.710;27.258;2022-08-19T13:25:32;12.40;;;6.33;;
12348;SDS011;5974;42.710;27.258;2022-08-19T13:27:59;6.93;;;6.10;;
12348;SDS011;5974;42.710;27.258;2022-08-19T13:30:27;7.60;;;5.97;;
12348;SDS011;5974;42.710;27.258;2022-08-19T13:33:12;12.57;;;6.57;;
12348;SDS011;5974;42.710;27.258;2022-08-19T13:35:41;7.03;;;6.33;;
12348;SDS011;5974;42.710;27.258;2022-08-19T13:38:08;9.57;;;6.40;;
12348;SDS011;5974;42.710;27.258;2022-08-19T13:40:35;7.70;;;5.90;;
12348;SDS011;5974;42.710;27.258;2022-08-19T13:43:02;8.03;;;6.07;;
12348;SDS011;5974;42.710;27.258;2022-08-19T13:45:30;10.07;;;6.37;;
12348;SDS011;5974;42.710;27.258;2022-08-19T13:47:57;10.10;;;6.47;;
12348;SDS011;5974;42.710;27.258;2022-08-19T13:50:26;7.70;;;5.80;;
12348;SDS011;5974;42.710;27.258;2022-08-19T13:52:53;6.63;;;5.90;;
12348;SDS011;5974;42.710;27.258;2022-08-19T13:55:20;7.97;;;6.30;;
12348;SDS011;5974;42.710;27.258;2022-08-19T13:57:49;6.95;;;5.93;;
12348;SDS011;5974;42.710;27.258;2022-08-19T14:00:17;10.40;;;6.50;;
12348;SDS011;5974;42.710;27.258;2022-08-19T14:02:44;8.57;;;6.40;;
12348;SDS011;5974;42.710;27.258;2022-08-19T14:05:11;7.40;;;6.37;;
12348;SDS011;5974;42.710;27.258;2022-08-19T14:07:39;10.70;;;6.53;;
12348;SDS011;5974;42.710;27.258;2022-08-19T14:10:07;15.93;;;7.20;;
12348;SDS011;5974;42.710;27.258;2022-08-19T14:12:34;9.33;;;6.87;;
12348;SDS011;5974;42.710;27.258;2022-08-19T14:15:01;10.57;;;6.10;;
12348;SDS011;5974;42.710;27.258;2022-08-19T14:17:28;11.13;;;6.20;;
12348;SDS011;5974;42.710;27.258;2022-08-19T14:19:56;9.20;;;6.03;;
12348;SDS011;5974;42.710;27.258;2022-08-19T14:22:22;7.43;;;6.30;;
12348;SDS011;5974;42.710;27.258;2022-08-19T14:24:50;8.20;;;6.43;;
12348;SDS011;5974;42.710;27.258;2022-08-19T14:27:17;8.03;;;6.40;;
12348;SDS011;5974;42.710;27.258;2022-08-19T14:29:43;9.83;;;6.57;;
12348;SDS011;5974;42.710;27.258;2022-08-19T14:32:10;9.83;;;6.07;;
12348;SDS011;5974;42.710;27.258;2022-08-19T14:34:37;10.60;;;6.50;;
12348;SDS011;5974;42.710;27.258;2022-08-19T14:37:04;9.23;;;6.10;;
12348;SDS011;5974;42.710;27.258;2022-08-19T14:39:31;8.23;;;5.90;;
12348;SDS011;5974;42.710;27.258;2022-08-19T14:41:59;9.73;;;6.30;;
12348;SDS011;5974;42.710;27.258;2022-08-19T14:44:25;7.77;;;6.40;;